Sao Pedro da Aldeia, Brazil
Current Conditions -  °F | °C
As of 9:00 PM on Friday 24 Oct 2014 (Local Time) from SBES Reporting Station
Clear Clear  
Wind Chill: 72°   Ceiling: Unl
Heat Index: 72°   Visibility: 6mi
Dew Point: 64°   Wind: 18mph
Humidity: 78%   Direction: 60°ENE
Pressure: 29.94"   Gusts: NA
Location:  22.83°S, 42.11°W
Report Text: SBES 242300Z 06016KT CAVOK 22/18 Q1014
Loading
Personal Weather Stations






























Interactive Weather Map
Tropical Storm Tracking
New forecast layout! Learn more

10-Day Weather Forecast

Advertisements
Track Severe Weather on mobile